sensor_id;sensor_type;location;lat;lon;timestamp;P1;durP1;ratioP1;P2;durP2;ratioP2
48052;SDS011;33824;51.600;5.718;2023-01-16T00:01:09;0.82;;;0.50;;
48052;SDS011;33824;51.600;5.718;2023-01-16T00:03:35;1.92;;;0.63;;
48052;SDS011;33824;51.600;5.718;2023-01-16T00:06:01;4.65;;;0.60;;
48052;SDS011;33824;51.600;5.718;2023-01-16T00:08:27;2.42;;;0.70;;
48052;SDS011;33824;51.600;5.718;2023-01-16T00:10:52;2.53;;;0.60;;
48052;SDS011;33824;51.600;5.718;2023-01-16T00:13:18;3.80;;;0.63;;
48052;SDS011;33824;51.600;5.718;2023-01-16T00:15:48;1.40;;;0.63;;
48052;SDS011;33824;51.600;5.718;2023-01-16T00:18:15;1.30;;;0.60;;
48052;SDS011;33824;51.600;5.718;2023-01-16T00:20:41;3.55;;;1.00;;
48052;SDS011;33824;51.600;5.718;2023-01-16T00:23:06;2.53;;;0.70;;
48052;SDS011;33824;51.600;5.718;2023-01-16T00:25:32;7.38;;;0.88;;
48052;SDS011;33824;51.600;5.718;2023-01-16T00:27:57;1.48;;;0.45;;
48052;SDS011;33824;51.600;5.718;2023-01-16T00:30:23;1.65;;;0.52;;
48052;SDS011;33824;51.600;5.718;2023-01-16T00:32:49;5.32;;;1.05;;
48052;SDS011;33824;51.600;5.718;2023-01-16T00:35:15;2.95;;;1.33;;
48052;SDS011;33824;51.600;5.718;2023-01-16T00:37:41;2.92;;;0.75;;
48052;SDS011;33824;51.600;5.718;2023-01-16T00:40:07;4.80;;;1.10;;
48052;SDS011;33824;51.600;5.718;2023-01-16T00:42:33;7.40;;;1.23;;
48052;SDS011;33824;51.600;5.718;2023-01-16T00:44:58;4.43;;;0.90;;
48052;SDS011;33824;51.600;5.718;2023-01-16T00:47:24;7.70;;;1.25;;
48052;SDS011;33824;51.600;5.718;2023-01-16T00:49:49;2.33;;;0.90;;
48052;SDS011;33824;51.600;5.718;2023-01-16T00:52:15;8.55;;;1.05;;
48052;SDS011;33824;51.600;5.718;2023-01-16T00:54:41;3.33;;;1.35;;
48052;SDS011;33824;51.600;5.718;2023-01-16T00:57:06;3.75;;;0.85;;
48052;SDS011;33824;51.600;5.718;2023-01-16T00:59:32;6.10;;;1.17;;
48052;SDS011;33824;51.600;5.718;2023-01-16T01:01:57;4.28;;;0.90;;
48052;SDS011;33824;51.600;5.718;2023-01-16T01:04:23;9.52;;;1.42;;
48052;SDS011;33824;51.600;5.718;2023-01-16T01:06:48;6.57;;;1.17;;
48052;SDS011;33824;51.600;5.718;2023-01-16T01:09:14;6.65;;;1.10;;
48052;SDS011;33824;51.600;5.718;2023-01-16T01:11:39;6.28;;;0.98;;
48052;SDS011;33824;51.600;5.718;2023-01-16T01:14:05;6.10;;;0.80;;
48052;SDS011;33824;51.600;5.718;2023-01-16T01:16:30;2.55;;;0.90;;
48052;SDS011;33824;51.600;5.718;2023-01-16T01:18:56;5.30;;;1.05;;
48052;SDS011;33824;51.600;5.718;2023-01-16T01:21:21;11.90;;;1.35;;
48052;SDS011;33824;51.600;5.718;2023-01-16T01:23:47;3.38;;;1.10;;
48052;SDS011;33824;51.600;5.718;2023-01-16T01:26:14;6.07;;;1.13;;
48052;SDS011;33824;51.600;5.718;2023-01-16T01:28:41;9.40;;;1.60;;
48052;SDS011;33824;51.600;5.718;2023-01-16T01:31:08;4.32;;;1.00;;
48052;SDS011;33824;51.600;5.718;2023-01-16T01:33:36;8.80;;;0.88;;
48052;SDS011;33824;51.600;5.718;2023-01-16T01:36:02;6.95;;;0.90;;
48052;SDS011;33824;51.600;5.718;2023-01-16T01:38:29;4.78;;;1.13;;
48052;SDS011;33824;51.600;5.718;2023-01-16T01:40:55;5.28;;;0.82;;
48052;SDS011;33824;51.600;5.718;2023-01-16T01:43:20;2.33;;;0.60;;
48052;SDS011;33824;51.600;5.718;2023-01-16T01:45:48;7.00;;;1.15;;
48052;SDS011;33824;51.600;5.718;2023-01-16T01:48:28;7.22;;;2.70;;
48052;SDS011;33824;51.600;5.718;2023-01-16T01:51:01;5.43;;;1.00;;
48052;SDS011;33824;51.600;5.718;2023-01-16T01:53:32;4.28;;;1.02;;
48052;SDS011;33824;51.600;5.718;2023-01-16T01:56:09;6.50;;;1.05;;
48052;SDS011;33824;51.600;5.718;2023-01-16T01:58:38;6.13;;;1.08;;
48052;SDS011;33824;51.600;5.718;2023-01-16T02:01:04;5.85;;;1.17;;
48052;SDS011;33824;51.600;5.718;2023-01-16T02:03:40;5.32;;;1.00;;
48052;SDS011;33824;51.600;5.718;2023-01-16T02:06:16;9.18;;;1.60;;
48052;SDS011;33824;51.600;5.718;2023-01-16T02:08:46;5.38;;;1.05;;
48052;SDS011;33824;51.600;5.718;2023-01-16T02:11:18;14.45;;;2.15;;
48052;SDS011;33824;51.600;5.718;2023-01-16T02:13:53;6.10;;;1.25;;
48052;SDS011;33824;51.600;5.718;2023-01-16T02:16:20;8.45;;;1.13;;
48052;SDS011;33824;51.600;5.718;2023-01-16T02:19:05;7.80;;;1.77;;
48052;SDS011;33824;51.600;5.718;2023-01-16T02:24:41;11.23;;;1.38;;
48052;SDS011;33824;51.600;5.718;2023-01-16T02:27:34;8.50;;;1.17;;
48052;SDS011;33824;51.600;5.718;2023-01-16T02:32:51;8.55;;;1.35;;
48052;SDS011;33824;51.600;5.718;2023-01-16T02:44:10;3.65;;;1.25;;
48052;SDS011;33824;51.600;5.718;2023-01-16T02:52:51;4.88;;;0.90;;
48052;SDS011;33824;51.600;5.718;2023-01-16T02:58:04;5.80;;;0.88;;
48052;SDS011;33824;51.600;5.718;2023-01-16T03:00:32;3.53;;;0.98;;
48052;SDS011;33824;51.600;5.718;2023-01-16T03:03:00;6.65;;;1.27;;
48052;SDS011;33824;51.600;5.718;2023-01-16T03:05:26;5.57;;;1.02;;
48052;SDS011;33824;51.600;5.718;2023-01-16T03:08:16;6.70;;;1.42;;
48052;SDS011;33824;51.600;5.718;2023-01-16T03:11:13;3.78;;;0.77;;
48052;SDS011;33824;51.600;5.718;2023-01-16T03:24:18;6.45;;;1.00;;
48052;SDS011;33824;51.600;5.718;2023-01-16T03:26:54;2.90;;;1.05;;
48052;SDS011;33824;51.600;5.718;2023-01-16T03:29:28;8.02;;;1.20;;
48052;SDS011;33824;51.600;5.718;2023-01-16T03:32:00;6.75;;;0.95;;
48052;SDS011;33824;51.600;5.718;2023-01-16T03:37:13;5.45;;;1.13;;
48052;SDS011;33824;51.600;5.718;2023-01-16T03:39:46;4.68;;;1.10;;
48052;SDS011;33824;51.600;5.718;2023-01-16T03:42:21;6.33;;;1.03;;
48052;SDS011;33824;51.600;5.718;2023-01-16T03:44:51;7.15;;;1.05;;
48052;SDS011;33824;51.600;5.718;2023-01-16T03:47:22;10.93;;;1.70;;
48052;SDS011;33824;51.600;5.718;2023-01-16T03:49:54;6.13;;;1.27;;
48052;SDS011;33824;51.600;5.718;2023-01-16T03:52:24;8.90;;;1.10;;
48052;SDS011;33824;51.600;5.718;2023-01-16T03:54:57;6.50;;;1.20;;
48052;SDS011;33824;51.600;5.718;2023-01-16T03:57:36;5.95;;;1.30;;
48052;SDS011;33824;51.600;5.718;2023-01-16T04:00:05;4.35;;;1.10;;
48052;SDS011;33824;51.600;5.718;2023-01-16T04:02:42;2.90;;;1.08;;
48052;SDS011;33824;51.600;5.718;2023-01-16T04:10:24;6.57;;;1.50;;
48052;SDS011;33824;51.600;5.718;2023-01-16T04:13:09;8.90;;;1.15;;
48052;SDS011;33824;51.600;5.718;2023-01-16T04:15:41;7.30;;;1.10;;
48052;SDS011;33824;51.600;5.718;2023-01-16T04:18:09;6.35;;;0.95;;
48052;SDS011;33824;51.600;5.718;2023-01-16T04:20:35;5.53;;;1.15;;
48052;SDS011;33824;51.600;5.718;2023-01-16T04:23:02;4.40;;;1.30;;
48052;SDS011;33824;51.600;5.718;2023-01-16T04:25:28;2.22;;;0.90;;
48052;SDS011;33824;51.600;5.718;2023-01-16T04:27:53;9.93;;;1.58;;
48052;SDS011;33824;51.600;5.718;2023-01-16T04:30:19;4.53;;;1.00;;
48052;SDS011;33824;51.600;5.718;2023-01-16T04:32:45;6.35;;;1.25;;
48052;SDS011;33824;51.600;5.718;2023-01-16T04:35:11;7.07;;;1.25;;
48052;SDS011;33824;51.600;5.718;2023-01-16T04:37:37;6.47;;;1.52;;
48052;SDS011;33824;51.600;5.718;2023-01-16T04:40:02;3.83;;;1.15;;
48052;SDS011;33824;51.600;5.718;2023-01-16T04:42:28;5.00;;;1.10;;
48052;SDS011;33824;51.600;5.718;2023-01-16T04:44:54;8.07;;;1.23;;
48052;SDS011;33824;51.600;5.718;2023-01-16T04:47:19;4.55;;;1.20;;
48052;SDS011;33824;51.600;5.718;2023-01-16T04:49:45;4.07;;;1.15;;
48052;SDS011;33824;51.600;5.718;2023-01-16T04:52:11;6.22;;;1.92;;
48052;SDS011;33824;51.600;5.718;2023-01-16T04:54:38;6.82;;;1.25;;
48052;SDS011;33824;51.600;5.718;2023-01-16T04:57:04;6.32;;;1.00;;
48052;SDS011;33824;51.600;5.718;2023-01-16T04:59:29;2.42;;;1.17;;
48052;SDS011;33824;51.600;5.718;2023-01-16T05:01:55;4.93;;;1.00;;
48052;SDS011;33824;51.600;5.718;2023-01-16T05:04:21;3.75;;;0.80;;
48052;SDS011;33824;51.600;5.718;2023-01-16T05:06:46;2.67;;;1.05;;
48052;SDS011;33824;51.600;5.718;2023-01-16T05:09:12;4.05;;;1.02;;
48052;SDS011;33824;51.600;5.718;2023-01-16T05:11:38;6.38;;;1.10;;
48052;SDS011;33824;51.600;5.718;2023-01-16T05:14:04;6.85;;;1.20;;
48052;SDS011;33824;51.600;5.718;2023-01-16T05:16:36;4.90;;;1.20;;
48052;SDS011;33824;51.600;5.718;2023-01-16T05:19:03;3.45;;;0.73;;
48052;SDS011;33824;51.600;5.718;2023-01-16T05:21:29;3.92;;;1.00;;
48052;SDS011;33824;51.600;5.718;2023-01-16T05:23:55;3.22;;;0.82;;
48052;SDS011;33824;51.600;5.718;2023-01-16T05:26:20;5.43;;;1.00;;
48052;SDS011;33824;51.600;5.718;2023-01-16T05:28:46;4.32;;;1.02;;
48052;SDS011;33824;51.600;5.718;2023-01-16T05:31:11;3.85;;;0.95;;
48052;SDS011;33824;51.600;5.718;2023-01-16T05:33:37;4.85;;;0.82;;
48052;SDS011;33824;51.600;5.718;2023-01-16T05:36:03;4.13;;;1.00;;
48052;SDS011;33824;51.600;5.718;2023-01-16T05:38:29;6.10;;;0.70;;
48052;SDS011;33824;51.600;5.718;2023-01-16T05:40:54;4.95;;;1.10;;
48052;SDS011;33824;51.600;5.718;2023-01-16T05:43:20;6.75;;;1.20;;
48052;SDS011;33824;51.600;5.718;2023-01-16T05:45:46;7.00;;;1.00;;
48052;SDS011;33824;51.600;5.718;2023-01-16T05:48:12;2.95;;;0.77;;
48052;SDS011;33824;51.600;5.718;2023-01-16T05:50:37;4.82;;;0.95;;
48052;SDS011;33824;51.600;5.718;2023-01-16T05:53:03;4.70;;;1.08;;
48052;SDS011;33824;51.600;5.718;2023-01-16T05:55:28;4.10;;;1.23;;
48052;SDS011;33824;51.600;5.718;2023-01-16T05:57:54;2.75;;;0.70;;
48052;SDS011;33824;51.600;5.718;2023-01-16T06:00:19;5.07;;;0.80;;
48052;SDS011;33824;51.600;5.718;2023-01-16T06:02:45;3.80;;;0.90;;
48052;SDS011;33824;51.600;5.718;2023-01-16T06:05:11;4.55;;;0.88;;
48052;SDS011;33824;51.600;5.718;2023-01-16T06:07:38;2.17;;;0.60;;
48052;SDS011;33824;51.600;5.718;2023-01-16T06:10:03;5.75;;;0.85;;
48052;SDS011;33824;51.600;5.718;2023-01-16T06:12:29;4.43;;;1.05;;
48052;SDS011;33824;51.600;5.718;2023-01-16T06:14:57;3.08;;;0.57;;
48052;SDS011;33824;51.600;5.718;2023-01-16T06:17:23;3.92;;;0.60;;
48052;SDS011;33824;51.600;5.718;2023-01-16T06:19:48;5.05;;;0.70;;
48052;SDS011;33824;51.600;5.718;2023-01-16T06:22:14;3.67;;;0.75;;
48052;SDS011;33824;51.600;5.718;2023-01-16T06:24:40;3.80;;;0.80;;
48052;SDS011;33824;51.600;5.718;2023-01-16T06:27:05;2.05;;;0.60;;
48052;SDS011;33824;51.600;5.718;2023-01-16T06:29:31;1.70;;;0.70;;
48052;SDS011;33824;51.600;5.718;2023-01-16T06:31:56;2.10;;;0.88;;
48052;SDS011;33824;51.600;5.718;2023-01-16T06:34:22;1.33;;;0.47;;
48052;SDS011;33824;51.600;5.718;2023-01-16T06:36:48;3.25;;;0.68;;
48052;SDS011;33824;51.600;5.718;2023-01-16T06:39:14;2.63;;;0.93;;
48052;SDS011;33824;51.600;5.718;2023-01-16T06:41:40;4.50;;;0.80;;
48052;SDS011;33824;51.600;5.718;2023-01-16T06:44:05;5.15;;;1.67;;
48052;SDS011;33824;51.600;5.718;2023-01-16T06:46:31;3.00;;;0.57;;
48052;SDS011;33824;51.600;5.718;2023-01-16T06:48:57;5.50;;;1.00;;
48052;SDS011;33824;51.600;5.718;2023-01-16T06:51:22;4.97;;;1.63;;
48052;SDS011;33824;51.600;5.718;2023-01-16T06:53:48;3.33;;;0.77;;
48052;SDS011;33824;51.600;5.718;2023-01-16T06:56:13;6.28;;;1.05;;
48052;SDS011;33824;51.600;5.718;2023-01-16T06:58:39;1.02;;;0.50;;
48052;SDS011;33824;51.600;5.718;2023-01-16T07:01:05;3.13;;;0.88;;
48052;SDS011;33824;51.600;5.718;2023-01-16T07:03:31;3.45;;;0.60;;
48052;SDS011;33824;51.600;5.718;2023-01-16T07:05:57;4.47;;;0.68;;
48052;SDS011;33824;51.600;5.718;2023-01-16T07:08:22;0.90;;;0.50;;
48052;SDS011;33824;51.600;5.718;2023-01-16T07:10:48;4.88;;;1.02;;
48052;SDS011;33824;51.600;5.718;2023-01-16T07:13:13;1.23;;;0.82;;
48052;SDS011;33824;51.600;5.718;2023-01-16T07:15:40;4.43;;;0.90;;
48052;SDS011;33824;51.600;5.718;2023-01-16T07:18:34;3.05;;;0.65;;
48052;SDS011;33824;51.600;5.718;2023-01-16T07:21:18;8.18;;;0.80;;
48052;SDS011;33824;51.600;5.718;2023-01-16T07:24:06;5.82;;;0.70;;
48052;SDS011;33824;51.600;5.718;2023-01-16T07:26:34;4.18;;;0.95;;
48052;SDS011;33824;51.600;5.718;2023-01-16T07:29:04;2.33;;;0.70;;
48052;SDS011;33824;51.600;5.718;2023-01-16T07:31:30;2.50;;;0.50;;
48052;SDS011;33824;51.600;5.718;2023-01-16T07:33:58;2.05;;;0.68;;
48052;SDS011;33824;51.600;5.718;2023-01-16T07:36:24;2.33;;;0.85;;
48052;SDS011;33824;51.600;5.718;2023-01-16T07:38:49;2.60;;;0.73;;
48052;SDS011;33824;51.600;5.718;2023-01-16T07:41:15;1.75;;;1.10;;
48052;SDS011;33824;51.600;5.718;2023-01-16T07:43:41;1.95;;;1.15;;
48052;SDS011;33824;51.600;5.718;2023-01-16T07:46:06;2.63;;;0.70;;
48052;SDS011;33824;51.600;5.718;2023-01-16T07:48:32;3.42;;;1.30;;
48052;SDS011;33824;51.600;5.718;2023-01-16T07:50:58;7.78;;;0.85;;
48052;SDS011;33824;51.600;5.718;2023-01-16T07:53:25;7.32;;;0.73;;
48052;SDS011;33824;51.600;5.718;2023-01-16T07:55:53;1.83;;;0.65;;
48052;SDS011;33824;51.600;5.718;2023-01-16T07:58:21;4.00;;;0.65;;
48052;SDS011;33824;51.600;5.718;2023-01-16T08:00:47;3.92;;;0.70;;
48052;SDS011;33824;51.600;5.718;2023-01-16T08:03:14;5.22;;;1.10;;
48052;SDS011;33824;51.600;5.718;2023-01-16T08:05:41;3.15;;;0.70;;
48052;SDS011;33824;51.600;5.718;2023-01-16T08:08:08;2.58;;;0.70;;
48052;SDS011;33824;51.600;5.718;2023-01-16T08:10:35;4.45;;;0.77;;
48052;SDS011;33824;51.600;5.718;2023-01-16T08:13:00;2.35;;;0.95;;
48052;SDS011;33824;51.600;5.718;2023-01-16T08:15:26;7.70;;;2.08;;
48052;SDS011;33824;51.600;5.718;2023-01-16T08:17:52;2.80;;;0.93;;
48052;SDS011;33824;51.600;5.718;2023-01-16T08:20:18;4.28;;;0.85;;
48052;SDS011;33824;51.600;5.718;2023-01-16T08:22:43;5.45;;;0.90;;
48052;SDS011;33824;51.600;5.718;2023-01-16T08:25:11;4.40;;;1.13;;
48052;SDS011;33824;51.600;5.718;2023-01-16T08:27:37;3.30;;;0.70;;
48052;SDS011;33824;51.600;5.718;2023-01-16T08:30:03;6.90;;;0.98;;
48052;SDS011;33824;51.600;5.718;2023-01-16T08:32:30;1.77;;;0.73;;
48052;SDS011;33824;51.600;5.718;2023-01-16T08:34:56;4.55;;;0.95;;
48052;SDS011;33824;51.600;5.718;2023-01-16T08:37:21;6.25;;;1.00;;
48052;SDS011;33824;51.600;5.718;2023-01-16T08:39:47;4.45;;;0.88;;
48052;SDS011;33824;51.600;5.718;2023-01-16T08:42:12;2.80;;;1.17;;
48052;SDS011;33824;51.600;5.718;2023-01-16T08:44:56;4.38;;;1.20;;
48052;SDS011;33824;51.600;5.718;2023-01-16T08:47:41;3.13;;;0.63;;
48052;SDS011;33824;51.600;5.718;2023-01-16T08:50:25;4.53;;;0.77;;
48052;SDS011;33824;51.600;5.718;2023-01-16T08:53:09;12.40;;;0.90;;
48052;SDS011;33824;51.600;5.718;2023-01-16T08:55:35;1.17;;;0.60;;
48052;SDS011;33824;51.600;5.718;2023-01-16T08:58:01;4.47;;;0.98;;
48052;SDS011;33824;51.600;5.718;2023-01-16T09:00:27;4.60;;;1.05;;
48052;SDS011;33824;51.600;5.718;2023-01-16T09:02:53;3.50;;;0.60;;
48052;SDS011;33824;51.600;5.718;2023-01-16T09:05:22;4.90;;;0.70;;
48052;SDS011;33824;51.600;5.718;2023-01-16T09:07:47;3.28;;;0.65;;
48052;SDS011;33824;51.600;5.718;2023-01-16T09:10:13;1.75;;;0.70;;
48052;SDS011;33824;51.600;5.718;2023-01-16T09:12:39;4.82;;;0.70;;
48052;SDS011;33824;51.600;5.718;2023-01-16T09:15:24;2.38;;;0.50;;
48052;SDS011;33824;51.600;5.718;2023-01-16T09:17:50;0.50;;;0.50;;
48052;SDS011;33824;51.600;5.718;2023-01-16T09:20:17;3.55;;;0.93;;
48052;SDS011;33824;51.600;5.718;2023-01-16T09:22:43;3.50;;;0.57;;
48052;SDS011;33824;51.600;5.718;2023-01-16T09:25:09;1.98;;;0.55;;
48052;SDS011;33824;51.600;5.718;2023-01-16T09:27:34;3.45;;;0.50;;
48052;SDS011;33824;51.600;5.718;2023-01-16T09:30:01;2.35;;;0.70;;
48052;SDS011;33824;51.600;5.718;2023-01-16T09:32:26;0.52;;;0.35;;
48052;SDS011;33824;51.600;5.718;2023-01-16T09:34:52;1.95;;;0.40;;
48052;SDS011;33824;51.600;5.718;2023-01-16T09:37:17;3.15;;;0.70;;
48052;SDS011;33824;51.600;5.718;2023-01-16T09:39:44;0.47;;;0.35;;
48052;SDS011;33824;51.600;5.718;2023-01-16T09:45:20;2.30;;;0.40;;
48052;SDS011;33824;51.600;5.718;2023-01-16T09:47:53;0.63;;;0.30;;
48052;SDS011;33824;51.600;5.718;2023-01-16T09:53:03;0.60;;;0.40;;
48052;SDS011;33824;51.600;5.718;2023-01-16T09:55:50;0.75;;;0.30;;
48052;SDS011;33824;51.600;5.718;2023-01-16T09:58:39;3.22;;;0.60;;
48052;SDS011;33824;51.600;5.718;2023-01-16T10:01:31;1.10;;;0.50;;
48052;SDS011;33824;51.600;5.718;2023-01-16T10:09:32;1.02;;;0.32;;
48052;SDS011;33824;51.600;5.718;2023-01-16T10:12:30;2.25;;;0.50;;
48052;SDS011;33824;51.600;5.718;2023-01-16T10:20:21;0.82;;;0.40;;
48052;SDS011;33824;51.600;5.718;2023-01-16T10:31:33;0.80;;;0.32;;
48052;SDS011;33824;51.600;5.718;2023-01-16T10:36:50;1.85;;;0.32;;
48052;SDS011;33824;51.600;5.718;2023-01-16T10:39:19;0.47;;;0.32;;
48052;SDS011;33824;51.600;5.718;2023-01-16T10:41:47;0.73;;;0.35;;
48052;SDS011;33824;51.600;5.718;2023-01-16T10:44:35;1.88;;;0.57;;
48052;SDS011;33824;51.600;5.718;2023-01-16T10:47:30;1.98;;;0.38;;
48052;SDS011;33824;51.600;5.718;2023-01-16T10:50:18;1.00;;;0.30;;
48052;SDS011;33824;51.600;5.718;2023-01-16T10:52:46;0.45;;;0.30;;
48052;SDS011;33824;51.600;5.718;2023-01-16T10:55:13;1.70;;;0.82;;
48052;SDS011;33824;51.600;5.718;2023-01-16T10:57:44;2.13;;;0.50;;
48052;SDS011;33824;51.600;5.718;2023-01-16T11:00:19;0.88;;;0.40;;
48052;SDS011;33824;51.600;5.718;2023-01-16T11:03:08;1.25;;;0.65;;
48052;SDS011;33824;51.600;5.718;2023-01-16T11:05:44;1.00;;;0.30;;
48052;SDS011;33824;51.600;5.718;2023-01-16T11:10:45;1.35;;;0.35;;
48052;SDS011;33824;51.600;5.718;2023-01-16T11:13:19;1.13;;;0.40;;
48052;SDS011;33824;51.600;5.718;2023-01-16T11:18:56;0.52;;;0.40;;
48052;SDS011;33824;51.600;5.718;2023-01-16T11:21:24;1.70;;;0.40;;
48052;SDS011;33824;51.600;5.718;2023-01-16T11:23:57;0.43;;;0.40;;
48052;SDS011;33824;51.600;5.718;2023-01-16T11:26:26;2.42;;;0.60;;
48052;SDS011;33824;51.600;5.718;2023-01-16T11:28:53;1.23;;;0.40;;
48052;SDS011;33824;51.600;5.718;2023-01-16T11:31:21;0.75;;;0.32;;
48052;SDS011;33824;51.600;5.718;2023-01-16T11:33:51;1.27;;;0.65;;
48052;SDS011;33824;51.600;5.718;2023-01-16T11:38:49;0.70;;;0.30;;
48052;SDS011;33824;51.600;5.718;2023-01-16T11:41:17;0.52;;;0.40;;
48052;SDS011;33824;51.600;5.718;2023-01-16T11:43:47;0.40;;;0.30;;
48052;SDS011;33824;51.600;5.718;2023-01-16T11:46:47;1.42;;;0.47;;
48052;SDS011;33824;51.600;5.718;2023-01-16T11:49:16;0.95;;;0.30;;
48052;SDS011;33824;51.600;5.718;2023-01-16T11:51:43;0.40;;;0.32;;
48052;SDS011;33824;51.600;5.718;2023-01-16T11:54:16;0.85;;;0.30;;
48052;SDS011;33824;51.600;5.718;2023-01-16T11:56:49;2.80;;;0.40;;
48052;SDS011;33824;51.600;5.718;2023-01-16T11:59:51;0.45;;;0.40;;
48052;SDS011;33824;51.600;5.718;2023-01-16T12:02:41;1.92;;;0.40;;
48052;SDS011;33824;51.600;5.718;2023-01-16T12:11:29;0.63;;;0.30;;
48052;SDS011;33824;51.600;5.718;2023-01-16T12:17:17;1.30;;;0.40;;
48052;SDS011;33824;51.600;5.718;2023-01-16T12:28:06;0.50;;;0.40;;
48052;SDS011;33824;51.600;5.718;2023-01-16T12:48:48;0.95;;;0.32;;
48052;SDS011;33824;51.600;5.718;2023-01-16T12:55:12;1.23;;;0.47;;
48052;SDS011;33824;51.600;5.718;2023-01-16T12:57:37;2.00;;;0.43;;
48052;SDS011;33824;51.600;5.718;2023-01-16T13:00:14;1.10;;;0.40;;
48052;SDS011;33824;51.600;5.718;2023-01-16T13:02:51;1.30;;;0.45;;
48052;SDS011;33824;51.600;5.718;2023-01-16T13:05:22;0.40;;;0.40;;
48052;SDS011;33824;51.600;5.718;2023-01-16T13:07:52;1.55;;;0.50;;
48052;SDS011;33824;51.600;5.718;2023-01-16T13:10:24;0.73;;;0.40;;
48052;SDS011;33824;51.600;5.718;2023-01-16T13:13:18;0.82;;;0.32;;
48052;SDS011;33824;51.600;5.718;2023-01-16T13:18:47;0.25;;;0.25;;
48052;SDS011;33824;51.600;5.718;2023-01-16T13:21:20;0.43;;;0.20;;
48052;SDS011;33824;51.600;5.718;2023-01-16T13:26:37;2.25;;;0.63;;
48052;SDS011;33824;51.600;5.718;2023-01-16T13:31:58;0.65;;;0.40;;
48052;SDS011;33824;51.600;5.718;2023-01-16T13:34:32;0.40;;;0.40;;
48052;SDS011;33824;51.600;5.718;2023-01-16T13:37:49;0.50;;;0.25;;
48052;SDS011;33824;51.600;5.718;2023-01-16T13:43:02;1.48;;;0.40;;
48052;SDS011;33824;51.600;5.718;2023-01-16T13:45:53;0.35;;;0.20;;
48052;SDS011;33824;51.600;5.718;2023-01-16T13:48:21;0.22;;;0.20;;
48052;SDS011;33824;51.600;5.718;2023-01-16T13:50:52;0.90;;;0.30;;
48052;SDS011;33824;51.600;5.718;2023-01-16T13:53:30;0.57;;;0.40;;
48052;SDS011;33824;51.600;5.718;2023-01-16T13:58:39;0.57;;;0.40;;
48052;SDS011;33824;51.600;5.718;2023-01-16T14:01:06;1.17;;;0.65;;
48052;SDS011;33824;51.600;5.718;2023-01-16T14:04:33;3.35;;;0.65;;
48052;SDS011;33824;51.600;5.718;2023-01-16T14:06:55;4.63;;;1.50;;
48052;SDS011;33824;51.600;5.718;2023-01-16T14:12:35;5.13;;;0.40;;
48052;SDS011;33824;51.600;5.718;2023-01-16T14:15:20;2.25;;;0.57;;
48052;SDS011;33824;51.600;5.718;2023-01-16T14:18:20;0.57;;;0.40;;
48052;SDS011;33824;51.600;5.718;2023-01-16T14:23:19;0.75;;;0.40;;
48052;SDS011;33824;51.600;5.718;2023-01-16T14:26:15;0.95;;;0.40;;
48052;SDS011;33824;51.600;5.718;2023-01-16T14:28:45;5.57;;;0.40;;
48052;SDS011;33824;51.600;5.718;2023-01-16T14:34:21;0.93;;;0.30;;
48052;SDS011;33824;51.600;5.718;2023-01-16T14:36:52;0.20;;;0.20;;
48052;SDS011;33824;51.600;5.718;2023-01-16T14:39:28;0.57;;;0.25;;
48052;SDS011;33824;51.600;5.718;2023-01-16T14:54:07;0.40;;;0.30;;
48052;SDS011;33824;51.600;5.718;2023-01-16T14:57:00;0.50;;;0.40;;
48052;SDS011;33824;51.600;5.718;2023-01-16T14:59:35;0.98;;;0.30;;
48052;SDS011;33824;51.600;5.718;2023-01-16T15:02:17;0.30;;;0.20;;
48052;SDS011;33824;51.600;5.718;2023-01-16T15:04:56;0.40;;;0.30;;
48052;SDS011;33824;51.600;5.718;2023-01-16T15:07:38;0.47;;;0.30;;
48052;SDS011;33824;51.600;5.718;2023-01-16T15:10:10;1.58;;;0.30;;
48052;SDS011;33824;51.600;5.718;2023-01-16T15:12:40;0.30;;;0.30;;
48052;SDS011;33824;51.600;5.718;2023-01-16T15:15:29;1.23;;;0.50;;
48052;SDS011;33824;51.600;5.718;2023-01-16T15:17:57;0.82;;;0.30;;
48052;SDS011;33824;51.600;5.718;2023-01-16T15:20:43;2.13;;;0.30;;
48052;SDS011;33824;51.600;5.718;2023-01-16T15:23:33;0.55;;;0.30;;
48052;SDS011;33824;51.600;5.718;2023-01-16T15:31:06;0.45;;;0.30;;
48052;SDS011;33824;51.600;5.718;2023-01-16T15:33:35;1.65;;;0.30;;
48052;SDS011;33824;51.600;5.718;2023-01-16T15:41:37;0.95;;;0.35;;
48052;SDS011;33824;51.600;5.718;2023-01-16T15:44:23;0.68;;;0.52;;
48052;SDS011;33824;51.600;5.718;2023-01-16T15:50:06;0.38;;;0.30;;
48052;SDS011;33824;51.600;5.718;2023-01-16T15:52:53;0.73;;;0.40;;
48052;SDS011;33824;51.600;5.718;2023-01-16T15:55:29;0.50;;;0.32;;
48052;SDS011;33824;51.600;5.718;2023-01-16T15:58:01;2.60;;;0.60;;
48052;SDS011;33824;51.600;5.718;2023-01-16T16:00:35;2.55;;;0.40;;
48052;SDS011;33824;51.600;5.718;2023-01-16T16:03:19;1.48;;;0.98;;
48052;SDS011;33824;51.600;5.718;2023-01-16T16:05:50;0.30;;;0.30;;
48052;SDS011;33824;51.600;5.718;2023-01-16T16:08:20;1.40;;;0.65;;
48052;SDS011;33824;51.600;5.718;2023-01-16T16:10:49;1.10;;;0.40;;
48052;SDS011;33824;51.600;5.718;2023-01-16T16:13:36;0.40;;;0.30;;
48052;SDS011;33824;51.600;5.718;2023-01-16T16:16:04;3.67;;;1.05;;
48052;SDS011;33824;51.600;5.718;2023-01-16T16:19:00;1.10;;;0.50;;
48052;SDS011;33824;51.600;5.718;2023-01-16T16:21:47;1.63;;;1.02;;
48052;SDS011;33824;51.600;5.718;2023-01-16T16:24:33;1.50;;;0.80;;
48052;SDS011;33824;51.600;5.718;2023-01-16T16:27:09;0.85;;;0.57;;
48052;SDS011;33824;51.600;5.718;2023-01-16T16:29:39;0.82;;;0.70;;
48052;SDS011;33824;51.600;5.718;2023-01-16T16:32:06;4.75;;;0.63;;
48052;SDS011;33824;51.600;5.718;2023-01-16T16:34:40;0.68;;;0.68;;
48052;SDS011;33824;51.600;5.718;2023-01-16T16:37:20;1.77;;;0.80;;
48052;SDS011;33824;51.600;5.718;2023-01-16T16:47:41;0.77;;;0.70;;
48052;SDS011;33824;51.600;5.718;2023-01-16T16:53:12;1.83;;;0.95;;
48052;SDS011;33824;51.600;5.718;2023-01-16T16:55:42;1.75;;;1.00;;
48052;SDS011;33824;51.600;5.718;2023-01-16T16:58:19;1.67;;;1.07;;
48052;SDS011;33824;51.600;5.718;2023-01-16T17:00:47;1.83;;;0.95;;
48052;SDS011;33824;51.600;5.718;2023-01-16T17:03:20;1.13;;;1.02;;
48052;SDS011;33824;51.600;5.718;2023-01-16T17:05:48;1.17;;;0.85;;
48052;SDS011;33824;51.600;5.718;2023-01-16T17:08:18;6.38;;;0.90;;
48052;SDS011;33824;51.600;5.718;2023-01-16T17:10:46;3.03;;;0.95;;
48052;SDS011;33824;51.600;5.718;2023-01-16T17:13:17;2.03;;;1.05;;
48052;SDS011;33824;51.600;5.718;2023-01-16T17:15:45;1.60;;;0.80;;
48052;SDS011;33824;51.600;5.718;2023-01-16T17:18:12;1.30;;;0.90;;
48052;SDS011;33824;51.600;5.718;2023-01-16T17:20:39;1.77;;;0.90;;
48052;SDS011;33824;51.600;5.718;2023-01-16T17:23:11;2.13;;;1.10;;
48052;SDS011;33824;51.600;5.718;2023-01-16T17:26:00;1.73;;;1.15;;
48052;SDS011;33824;51.600;5.718;2023-01-16T17:28:25;1.80;;;0.88;;
48052;SDS011;33824;51.600;5.718;2023-01-16T17:30:51;1.73;;;1.20;;
48052;SDS011;33824;51.600;5.718;2023-01-16T17:33:17;1.77;;;0.98;;
48052;SDS011;33824;51.600;5.718;2023-01-16T17:35:48;1.30;;;0.80;;
48052;SDS011;33824;51.600;5.718;2023-01-16T17:38:38;0.98;;;0.90;;
48052;SDS011;33824;51.600;5.718;2023-01-16T17:41:17;3.15;;;1.10;;
48052;SDS011;33824;51.600;5.718;2023-01-16T17:44:08;1.75;;;0.80;;
48052;SDS011;33824;51.600;5.718;2023-01-16T17:47:02;3.15;;;1.10;;
48052;SDS011;33824;51.600;5.718;2023-01-16T17:49:28;3.03;;;1.45;;
48052;SDS011;33824;51.600;5.718;2023-01-16T17:51:53;1.50;;;1.05;;
48052;SDS011;33824;51.600;5.718;2023-01-16T17:54:19;1.95;;;1.10;;
48052;SDS011;33824;51.600;5.718;2023-01-16T17:57:03;2.40;;;1.02;;
48052;SDS011;33824;51.600;5.718;2023-01-16T17:59:29;1.92;;;0.98;;
48052;SDS011;33824;51.600;5.718;2023-01-16T18:01:55;2.08;;;1.13;;
48052;SDS011;33824;51.600;5.718;2023-01-16T18:04:21;3.03;;;1.30;;
48052;SDS011;33824;51.600;5.718;2023-01-16T18:06:46;2.30;;;1.10;;
48052;SDS011;33824;51.600;5.718;2023-01-16T18:09:12;3.55;;;2.25;;